Kezdőlap
METAR-TAF:

METAR-TAF

Repülőterek :

Jackson Municipal Airport

Jackson, Minnesota, Amerikai Egyesült Államok

földrajzi szélesség: 43-39N, földrajzi hosszúság: 094-59W, magasság: 441 m

Jelenlegi meteorológiai megfigyelések

A jelentés 23 perccel ezelõtt készült, 13:55 UTC
Északnyugati szél 3 kt
Hőmérséklet -1°C
Páratartalom 74%
Légköri nyomás 1027 hPa
Látótávolság: 16.1 km
Szórványos felhőzet 6000 lábon
Szakadozott felhőzet 6500 lábon
Borult 9000 lábon

METAR: KMJQ 041355Z AUTO 32003KT 10SM SCT060 BKN065 OVC090 M01/M05 A3034 RMK AO2 PWINO

Idő: 08:18 (14:18 UTC)


TAF: hiányzik

Meteorológiai megfigyelések és előrejelzések több, mint 4000 repülőtéren (METAR és TAF jelentéseket).

A térképen piros és sárga pontok jelzik az elérhető meteorológiai állomásokat.

Mozgassa az egeret a pont fölött, hogy megjelenjen az állomás neve.

Azután kattintson az időjárási megfigyelések és előrejelzések megtekintéséhez.

A térkép megváltoztatása: kattintson a fekete keresztel jelölt zöld gombra ráközelítéshez, a vonallal jelölt zöld gombra távolításhoz, vagy a zöld nyilakra a szomszédos térképek eléréséhez.


METAR-TAF: